WMKN

Details ICAO WMKN (TGG)
Name Kuala Terengganu Sultan Mahmud
Region Malaysia (Peninsular Malaysia)
Timezone Asia/Kuala_Lumpur (UTC+8.0)
Plans Departing 25
Arriving 24
Stats Elevation 21 ft / 6 m (AMSL)
Location 5.382638° 103.103361°
Runways 1
Magnetic Variation 0.038° W
Sunrise 2017-12-14 23:09:38 UTC / 2017-12-15 07:09:38 Local
Sunset 2017-12-15 10:58:22 UTC / 2017-12-15 18:58:22 Local
Advertisement - Login to hide

Runways

ID Width Length Bearing (true) Bearing (mag) Surface Threshold Offset Overrun Length
04 150 ft / 46 m 6,580 ft / 2,006 m 44.37° 44.41° Asphalt 0 ft / 0 m 230 ft / 70 m
22 150 ft / 46 m 6,580 ft / 2,006 m 224.37° 224.41° Asphalt 0 ft / 0 m 218 ft / 66 m

Map

Weather


0- 5 10 15 20 25 30 35+ Temperature / ° C

Clouds and Precipitation
Forecast for 2017-12-15 00:00 UTC. Updated 18 minutes ago

Ground ~20,000 ft ~40,000 ft Winds

METAR

WMKN 141900Z VRB02KT 9999 SCT022 BKN300 25/23 Q1010

TAF

Not found

Frequencies

Ground 121.60 MHz TERENGGANU GND
Tower 123.60 MHz TERENGGANU TWR
Warning: Do not use this data for real-world aviation or navigation. No guarantee of current accuracy is given.